createdAt,value
2018-12-20T00:03:35.457Z,"    0"
2018-12-20T00:08:31.489Z,"    0"
2018-12-20T00:13:28.223Z,"    0"
2018-12-20T00:18:24.412Z,"    0"
2018-12-20T00:23:20.057Z,"    0"
2018-12-20T00:28:15.924Z,"    0"
2018-12-20T00:33:12.584Z,"    0"
2018-12-20T00:38:08.025Z,"    0"
2018-12-20T00:43:04.005Z,"    0"
2018-12-20T00:48:00.416Z,"    0"
2018-12-20T00:52:56.616Z,"    0"
2018-12-20T00:57:52.762Z,"    0"
2018-12-20T01:02:55.060Z,"    0"
2018-12-20T01:07:46.835Z,"    0"
2018-12-20T01:12:42.314Z,"    0"
2018-12-20T01:17:38.715Z,"    0"
2018-12-20T01:22:34.520Z,"    0"
2018-12-20T01:27:30.070Z,"    0"
2018-12-20T01:32:25.623Z,"    0"
2018-12-20T01:37:21.712Z,"    0"
2018-12-20T01:42:17.450Z,"    0"
2018-12-20T01:47:13.165Z,"    0"
2018-12-20T01:52:08.971Z,"    0"
2018-12-20T01:57:04.681Z,"    0"
2018-12-20T02:02:00.429Z,"    0"
2018-12-20T02:06:55.998Z,"    0"
2018-12-20T02:11:52.083Z,"    0"
2018-12-20T02:16:47.893Z,"    0"
2018-12-20T02:21:44.003Z,"    0"
2018-12-20T02:26:40.365Z,"    0"
2018-12-20T02:31:37.086Z,"    0"
2018-12-20T02:36:33.023Z,"    0"
2018-12-20T02:41:28.952Z,"    0"
2018-12-20T02:46:25.614Z,"    0"
2018-12-20T02:51:21.283Z,"    0"
2018-12-20T02:56:16.941Z,"    0"
2018-12-20T03:01:12.538Z,"    0"
2018-12-20T03:06:08.215Z,"    0"
2018-12-20T03:11:04.031Z,"    0"
2018-12-20T03:15:59.462Z,"    0"
2018-12-20T03:20:55.155Z,"    0"
2018-12-20T03:25:52.020Z,"    0"
2018-12-20T03:30:49.042Z,"    0"
2018-12-20T03:35:44.455Z,"    0"
2018-12-20T03:40:40.456Z,"    0"
2018-12-20T03:45:36.339Z,"    0"
2018-12-20T03:50:32.837Z,"    0"
2018-12-20T03:55:28.371Z,"    0"
2018-12-20T04:00:24.268Z,"    0"
2018-12-20T04:05:20.106Z,"    0"
2018-12-20T04:10:15.654Z,"    0"
2018-12-20T04:15:12.927Z,"    0"
2018-12-20T04:20:09.092Z,"    0"
2018-12-20T04:25:05.251Z,"    0"
2018-12-20T04:30:02.194Z,"    0"
2018-12-20T04:34:58.600Z,"    0"
2018-12-20T04:39:54.093Z,"    0"
2018-12-20T04:44:50.838Z,"    0"
2018-12-20T04:49:46.507Z,"    0"
2018-12-20T04:54:43.265Z,"    0"
2018-12-20T04:59:38.813Z,"    0"
2018-12-20T05:04:34.952Z,"    0"
2018-12-20T05:09:30.725Z,"    0"
2018-12-20T05:14:26.829Z,"    0"
2018-12-20T05:19:23.138Z,"    0"
2018-12-20T05:24:19.361Z,"    0"
2018-12-20T05:29:15.124Z,"    0"
2018-12-20T05:34:10.933Z,"    0"
2018-12-20T05:39:07.053Z,"    0"
2018-12-20T05:44:04.479Z,"    0"
2018-12-20T05:48:59.993Z,"    0"
2018-12-20T05:53:56.160Z,"    0"
2018-12-20T05:58:52.223Z,"    0"
2018-12-20T06:03:49.030Z,"    0"
2018-12-20T06:08:44.477Z,"    0"
2018-12-20T06:13:40.213Z,"    0"
2018-12-20T06:18:36.658Z,"    0"
2018-12-20T06:23:32.402Z,"    0"
2018-12-20T06:28:28.141Z,"    0"
2018-12-20T06:33:23.918Z,"    0"
2018-12-20T06:38:19.350Z,"    0"
2018-12-20T06:43:15.589Z,"    0"
2018-12-20T06:48:12.428Z,"    0"
2018-12-20T06:53:09.394Z,"    0"
2018-12-20T06:58:05.402Z,"    0"
2018-12-20T07:03:01.474Z,"    0"
2018-12-20T07:07:57.277Z,"    4"
2018-12-20T07:12:53.882Z,"    4"
2018-12-20T07:17:50.100Z,"    4"
2018-12-20T07:22:46.972Z,"   12"
2018-12-20T07:27:42.413Z,"   32"
2018-12-20T07:32:38.372Z,"   68"
2018-12-20T07:37:34.617Z,"  100"
2018-12-20T07:42:30.478Z,"  136"
2018-12-20T07:47:26.285Z,"  140"
2018-12-20T07:52:21.698Z,"  224"
2018-12-20T07:57:18.900Z,"  316"
2018-12-20T08:02:14.261Z,"  428"
2018-12-20T08:07:10.078Z,"  572"
2018-12-20T08:12:05.850Z,"  408"
2018-12-20T08:17:01.625Z,"  460"
2018-12-20T08:21:57.847Z,"  592"
2018-12-20T08:26:54.683Z,"  672"
2018-12-20T08:31:50.752Z,"  872"
2018-12-20T08:36:46.424Z,"  696"
2018-12-20T08:41:43.335Z,"  632"
2018-12-20T08:46:39.864Z,"  632"
2018-12-20T08:51:37.280Z,"  540"
2018-12-20T08:56:32.355Z,"  736"
2018-12-20T09:01:28.164Z,"  656"
2018-12-20T09:06:25.641Z,"  620"
2018-12-20T09:11:21.189Z," 1024"
2018-12-20T09:16:17.897Z," 1028"
2018-12-20T09:21:13.341Z," 2156"
2018-12-20T09:26:09.114Z," 1308"
2018-12-20T09:31:04.995Z," 2220"
2018-12-20T09:36:00.846Z," 2308"
2018-12-20T09:40:57.986Z," 1824"
2018-12-20T09:45:54.577Z," 2528"
2018-12-20T09:50:50.915Z," 3092"
2018-12-20T09:55:46.753Z," 2832"
2018-12-20T10:00:43.478Z," 2992"
2018-12-20T10:05:39.327Z," 3168"
2018-12-20T10:10:35.176Z," 3224"
2018-12-20T10:15:31.784Z," 2876"
2018-12-20T10:20:27.040Z," 2732"
2018-12-20T10:25:22.794Z," 3700"
2018-12-20T10:30:18.896Z," 5004"
2018-12-20T10:35:15.008Z," 5600"
2018-12-20T10:40:11.450Z," 4632"
2018-12-20T10:45:07.345Z," 5024"
2018-12-20T10:50:03.484Z," 2608"
2018-12-20T10:54:59.641Z," 1916"
2018-12-20T10:59:55.864Z," 2740"
2018-12-20T11:04:51.065Z," 2060"
2018-12-20T11:09:48.269Z," 1608"
2018-12-20T11:14:43.642Z," 2008"
2018-12-20T11:19:39.723Z," 2932"
2018-12-20T11:24:35.400Z," 3532"
2018-12-20T11:29:31.186Z," 3584"
2018-12-20T11:34:26.966Z," 3652"
2018-12-20T11:39:22.669Z," 2788"
2018-12-20T11:44:18.462Z," 2376"
2018-12-20T11:49:14.855Z," 1860"
2018-12-20T11:54:11.260Z," 3448"
2018-12-20T11:59:06.924Z," 2848"
2018-12-20T12:04:02.925Z," 3868"
2018-12-20T12:09:00.012Z," 4532"
2018-12-20T12:13:55.653Z," 2628"
2018-12-20T12:18:52.503Z," 2236"
2018-12-20T12:23:48.974Z," 2260"
2018-12-20T12:28:44.359Z," 2416"
2018-12-20T12:33:40.158Z," 2772"
2018-12-20T12:38:36.930Z," 2752"
2018-12-20T12:43:33.452Z," 3128"
2018-12-20T12:48:28.906Z," 3804"
2018-12-20T12:53:24.877Z," 3360"
2018-12-20T12:58:20.475Z," 2908"
2018-12-20T13:03:16.517Z," 2148"
2018-12-20T13:08:12.223Z," 1952"
2018-12-20T13:13:08.903Z," 1036"
2018-12-20T13:18:09.792Z," 1728"
2018-12-20T13:23:03.559Z," 1144"
2018-12-20T13:28:00.281Z," 2124"
2018-12-20T13:32:55.882Z," 1112"
2018-12-20T13:37:52.767Z,"  588"
2018-12-20T13:42:49.031Z,"  456"
2018-12-20T13:47:44.703Z,"  672"
2018-12-20T13:52:41.651Z,"  744"
2018-12-20T13:57:36.729Z,"  696"
2018-12-20T14:02:32.433Z," 1580"
2018-12-20T14:07:28.285Z,"  612"
2018-12-20T14:12:25.008Z," 1408"
2018-12-20T14:17:20.499Z," 1100"
2018-12-20T14:22:16.319Z,"  528"
2018-12-20T14:27:12.613Z,"  432"
2018-12-20T14:32:07.904Z,"  448"
2018-12-20T14:37:03.760Z,"  464"
2018-12-20T14:42:00.568Z,"  452"
2018-12-20T14:46:56.338Z,"  308"
2018-12-20T14:51:52.157Z,"  216"
2018-12-20T14:56:48.584Z,"  160"
2018-12-20T15:01:44.336Z,"  228"
2018-12-20T15:06:40.410Z,"  104"
2018-12-20T15:11:35.922Z,"   52"
2018-12-20T15:16:31.823Z,"   60"
2018-12-20T15:21:28.458Z,"   44"
2018-12-20T15:26:24.738Z,"   24"
2018-12-20T15:31:20.024Z,"   24"
2018-12-20T15:36:16.750Z,"   12"
2018-12-20T15:41:12.325Z,"    4"
2018-12-20T15:46:08.106Z,"    4"
2018-12-20T15:51:04.130Z,"    0"
2018-12-20T15:56:02.566Z,"    0"
2018-12-20T16:00:57.627Z,"    0"
2018-12-20T16:05:53.458Z,"    0"
2018-12-20T16:10:48.911Z,"    0"
2018-12-20T16:15:44.818Z,"    0"
2018-12-20T16:20:40.684Z,"    0"
2018-12-20T16:25:36.455Z,"    0"
2018-12-20T16:30:32.636Z,"    0"
2018-12-20T16:35:28.383Z,"    0"
2018-12-20T16:40:25.432Z,"    0"
2018-12-20T16:45:20.833Z,"    0"
2018-12-20T16:50:16.639Z,"    0"
2018-12-20T16:55:12.203Z,"    0"
2018-12-20T17:00:09.059Z,"    0"
2018-12-20T17:05:04.828Z,"    0"
2018-12-20T17:10:00.768Z,"    0"
2018-12-20T17:14:56.531Z,"    0"
2018-12-20T17:19:52.160Z,"    0"
2018-12-20T17:24:47.977Z,"    0"
2018-12-20T17:29:44.538Z,"    0"
2018-12-20T17:34:40.256Z,"    0"
2018-12-20T17:39:36.202Z,"    0"
2018-12-20T17:44:33.625Z,"    0"
2018-12-20T17:49:30.695Z,"    0"
2018-12-20T17:54:25.946Z,"    0"
2018-12-20T17:59:21.268Z,"    0"
2018-12-20T18:04:17.032Z,"    0"
2018-12-20T18:09:13.162Z,"    0"
2018-12-20T18:14:09.125Z,"    0"
2018-12-20T18:19:04.900Z,"    0"
2018-12-20T18:24:00.387Z,"    0"
2018-12-20T18:28:56.129Z,"    0"
2018-12-20T18:33:51.893Z,"    0"
2018-12-20T18:38:49.413Z,"    0"
2018-12-20T18:43:46.074Z,"    0"
2018-12-20T18:48:42.467Z,"    0"
2018-12-20T18:53:37.666Z,"    0"
2018-12-20T18:58:33.916Z,"    0"
2018-12-20T19:03:29.930Z,"    0"
2018-12-20T19:08:25.761Z,"    0"
2018-12-20T19:13:21.264Z,"    0"
2018-12-20T19:18:17.194Z,"    0"
2018-12-20T19:23:13.198Z,"    0"
2018-12-20T19:28:09.017Z,"    0"
2018-12-20T19:33:04.918Z,"    0"
2018-12-20T19:38:01.759Z,"    0"
2018-12-20T19:42:57.109Z,"    0"
2018-12-20T19:47:52.890Z,"    0"
2018-12-20T19:52:48.640Z,"    0"
2018-12-20T19:57:45.391Z,"    0"
2018-12-20T20:02:40.634Z,"    0"
2018-12-20T20:07:36.493Z,"    0"
2018-12-20T20:12:32.305Z,"    0"
2018-12-20T20:17:28.054Z,"    0"
2018-12-20T20:22:23.835Z,"    0"
2018-12-20T20:27:19.626Z,"    0"
2018-12-20T20:32:16.273Z,"    0"
2018-12-20T20:37:11.729Z,"    0"
2018-12-20T20:42:07.444Z,"    0"
2018-12-20T20:47:03.149Z,"    0"
2018-12-20T20:51:59.155Z,"    0"
2018-12-20T20:56:56.095Z,"    0"
2018-12-20T21:01:52.110Z,"    0"
2018-12-20T21:06:47.633Z,"    0"
2018-12-20T21:11:43.491Z,"    0"
2018-12-20T21:16:39.336Z,"    0"
2018-12-20T21:21:36.375Z,"    0"
2018-12-20T21:26:31.787Z,"    0"
2018-12-20T21:31:27.992Z,"    0"
2018-12-20T21:36:23.590Z,"    0"
2018-12-20T21:41:20.243Z,"    0"
2018-12-20T21:46:15.776Z,"    0"
2018-12-20T21:51:11.847Z,"    0"
2018-12-20T21:56:07.588Z,"    0"
2018-12-20T22:01:03.769Z,"    0"
2018-12-20T22:05:59.502Z,"    0"
2018-12-20T22:10:56.060Z,"    0"
2018-12-20T22:15:51.455Z,"    0"
2018-12-20T22:20:47.771Z,"    0"
2018-12-20T22:25:44.852Z,"    0"
2018-12-20T22:30:40.302Z,"    0"
2018-12-20T22:35:37.035Z,"    0"
2018-12-20T22:40:32.275Z,"    0"
2018-12-20T22:45:29.679Z,"    0"
2018-12-20T22:50:25.254Z,"    0"
2018-12-20T22:55:21.316Z,"    0"
2018-12-20T23:00:17.131Z,"    0"
2018-12-20T23:05:13.750Z,"    0"
2018-12-20T23:10:09.114Z,"    0"
2018-12-20T23:15:04.925Z,"    0"
2018-12-20T23:20:00.778Z,"    0"
2018-12-20T23:24:56.849Z,"    0"
2018-12-20T23:29:52.885Z,"    0"
2018-12-20T23:34:49.178Z,"    0"
2018-12-20T23:39:45.849Z,"    0"
2018-12-20T23:44:41.185Z,"    0"
2018-12-20T23:49:37.071Z,"    0"
2018-12-20T23:54:34.388Z,"    0"
2018-12-20T23:59:29.788Z,"    0"
